Terminal Aerodrome Forecast
Issued by NWS Melbourne, FL

Home | Current Version | Previous Version | Text Only | Print | Product List | Glossary On
Versions: 1 2 3 4 5 6 7 8 9 10 11 12
000
FTUS42 KMLB 221727
TAFVRB
TAF
KVRB 221727Z 2218/2318 12012KT P6SM SKC
     FM230000 16008KT P6SM VCSH SCT050 BKN250
     FM230200 15008KT P6SM BKN250
     FM231400 20011KT P6SM BKN250=

USA.gov is the U.S. government's official web portal to all federal, state and local government web resources and services.